sensor_id;sensor_type;location;lat;lon;timestamp;pressure;altitude;pressure_sealevel;temperature;humidity
51926;BME280;37952;51.938;15.480;2023-04-06T00:03:37;100302.89;;;4.96;41.70
51926;BME280;37952;51.938;15.480;2023-04-06T00:06:40;100298.46;;;4.93;41.74
51926;BME280;37952;51.938;15.480;2023-04-06T00:13:13;100290.62;;;4.80;41.72
51926;BME280;37952;51.938;15.480;2023-04-06T00:16:16;100304.64;;;4.85;41.82
51926;BME280;37952;51.938;15.480;2023-04-06T00:19:19;100290.77;;;4.75;41.80
51926;BME280;37952;51.938;15.480;2023-04-06T00:22:22;100305.09;;;4.80;41.88
51926;BME280;37952;51.938;15.480;2023-04-06T00:25:25;100304.67;;;4.77;41.98
51926;BME280;37952;51.938;15.480;2023-04-06T00:28:28;100307.30;;;4.76;41.96
51926;BME280;37952;51.938;15.480;2023-04-06T00:31:32;100300.09;;;4.71;41.99
51926;BME280;37952;51.938;15.480;2023-04-06T00:34:35;100302.66;;;4.67;42.06
51926;BME280;37952;51.938;15.480;2023-04-06T00:37:38;100301.66;;;4.65;42.18
51926;BME280;37952;51.938;15.480;2023-04-06T00:40:41;100301.38;;;4.63;42.14
51926;BME280;37952;51.938;15.480;2023-04-06T00:43:46;100303.10;;;4.57;42.17
51926;BME280;37952;51.938;15.480;2023-04-06T00:46:49;100302.16;;;4.53;42.23
51926;BME280;37952;51.938;15.480;2023-04-06T00:49:53;100306.75;;;4.51;42.31
51926;BME280;37952;51.938;15.480;2023-04-06T00:52:56;100301.73;;;4.49;42.30
51926;BME280;37952;51.938;15.480;2023-04-06T00:55:59;100304.40;;;4.47;42.45
51926;BME280;37952;51.938;15.480;2023-04-06T00:59:02;100300.45;;;4.45;42.50
51926;BME280;37952;51.938;15.480;2023-04-06T01:02:05;100300.16;;;4.43;42.59
51926;BME280;37952;51.938;15.480;2023-04-06T01:05:08;100298.66;;;4.40;42.56
51926;BME280;37952;51.938;15.480;2023-04-06T01:08:11;100295.71;;;4.39;42.67
51926;BME280;37952;51.938;15.480;2023-04-06T01:11:13;100294.70;;;4.38;42.65
51926;BME280;37952;51.938;15.480;2023-04-06T01:14:16;100295.09;;;4.37;42.73
51926;BME280;37952;51.938;15.480;2023-04-06T01:17:19;100296.71;;;4.35;42.87
51926;BME280;37952;51.938;15.480;2023-04-06T01:20:21;100292.40;;;4.33;42.88
51926;BME280;37952;51.938;15.480;2023-04-06T01:23:24;100294.02;;;4.31;42.95
51926;BME280;37952;51.938;15.480;2023-04-06T01:26:27;100291.63;;;4.28;42.97
51926;BME280;37952;51.938;15.480;2023-04-06T01:29:31;100294.95;;;4.28;43.00
51926;BME280;37952;51.938;15.480;2023-04-06T01:32:34;100293.20;;;4.28;42.98
51926;BME280;37952;51.938;15.480;2023-04-06T01:35:37;100294.70;;;4.24;43.11
51926;BME280;37952;51.938;15.480;2023-04-06T01:38:40;100298.41;;;4.23;43.15
51926;BME280;37952;51.938;15.480;2023-04-06T01:41:43;100297.94;;;4.21;43.14
51926;BME280;37952;51.938;15.480;2023-04-06T01:44:46;100296.89;;;4.21;43.27
51926;BME280;37952;51.938;15.480;2023-04-06T01:47:49;100297.15;;;4.18;43.36
51926;BME280;37952;51.938;15.480;2023-04-06T01:50:52;100289.38;;;4.14;43.31
51926;BME280;37952;51.938;15.480;2023-04-06T01:53:55;100292.28;;;4.09;43.44
51926;BME280;37952;51.938;15.480;2023-04-06T01:56:58;100291.61;;;4.09;43.53
51926;BME280;37952;51.938;15.480;2023-04-06T02:00:01;100289.55;;;4.08;43.51
51926;BME280;37952;51.938;15.480;2023-04-06T02:03:03;100288.28;;;4.09;43.46
51926;BME280;37952;51.938;15.480;2023-04-06T02:06:06;100288.48;;;4.08;43.59
51926;BME280;37952;51.938;15.480;2023-04-06T02:13:03;100290.02;;;4.09;43.82
51926;BME280;37952;51.938;15.480;2023-04-06T02:16:06;100291.10;;;4.08;43.83
51926;BME280;37952;51.938;15.480;2023-04-06T02:19:08;100294.46;;;4.06;43.77
51926;BME280;37952;51.938;15.480;2023-04-06T02:22:11;100295.59;;;4.03;43.87
51926;BME280;37952;51.938;15.480;2023-04-06T02:25:14;100293.42;;;3.99;43.88
51926;BME280;37952;51.938;15.480;2023-04-06T02:28:17;100291.89;;;3.97;43.89
51926;BME280;37952;51.938;15.480;2023-04-06T02:31:20;100289.84;;;3.96;43.91
51926;BME280;37952;51.938;15.480;2023-04-06T02:34:23;100290.88;;;3.96;44.02
51926;BME280;37952;51.938;15.480;2023-04-06T02:37:25;100288.09;;;3.96;44.04
51926;BME280;37952;51.938;15.480;2023-04-06T02:40:35;100292.10;;;3.96;44.06
51926;BME280;37952;51.938;15.480;2023-04-06T02:43:38;100291.76;;;3.96;44.02
51926;BME280;37952;51.938;15.480;2023-04-06T02:46:41;100296.15;;;3.94;44.03
51926;BME280;37952;51.938;15.480;2023-04-06T02:49:43;100295.71;;;3.91;44.20
51926;BME280;37952;51.938;15.480;2023-04-06T02:52:49;100298.30;;;3.92;44.25
51926;BME280;37952;51.938;15.480;2023-04-06T02:59:46;100298.69;;;3.90;44.43
51926;BME280;37952;51.938;15.480;2023-04-06T03:02:50;100299.71;;;3.91;44.52
51926;BME280;37952;51.938;15.480;2023-04-06T03:05:53;100296.77;;;3.90;44.55
51926;BME280;37952;51.938;15.480;2023-04-06T03:08:57;100299.74;;;3.90;44.57
51926;BME280;37952;51.938;15.480;2023-04-06T03:15:14;100301.95;;;3.92;44.76
51926;BME280;37952;51.938;15.480;2023-04-06T03:18:46;100304.08;;;3.90;44.88
51926;BME280;37952;51.938;15.480;2023-04-06T03:21:55;100302.92;;;3.87;44.98
51926;BME280;37952;51.938;15.480;2023-04-06T03:25:16;100286.16;;;3.75;45.11
51926;BME280;37952;51.938;15.480;2023-04-06T03:28:26;100297.79;;;3.77;45.17
51926;BME280;37952;51.938;15.480;2023-04-06T03:32:48;100307.93;;;3.90;45.17
51926;BME280;37952;51.938;15.480;2023-04-06T03:36:18;100305.26;;;3.86;45.15
51926;BME280;37952;51.938;15.480;2023-04-06T03:39:55;100305.07;;;3.86;45.29
51926;BME280;37952;51.938;15.480;2023-04-06T03:42:58;100310.10;;;3.87;45.22
51926;BME280;37952;51.938;15.480;2023-04-06T03:46:01;100314.52;;;3.84;45.17
51926;BME280;37952;51.938;15.480;2023-04-06T03:49:03;100317.19;;;3.82;45.17
51926;BME280;37952;51.938;15.480;2023-04-06T03:52:06;100319.84;;;3.81;45.29
51926;BME280;37952;51.938;15.480;2023-04-06T03:55:09;100322.67;;;3.78;45.23
51926;BME280;37952;51.938;15.480;2023-04-06T03:58:12;100321.52;;;3.76;45.18
51926;BME280;37952;51.938;15.480;2023-04-06T04:01:16;100324.67;;;3.75;45.17
51926;BME280;37952;51.938;15.480;2023-04-06T04:04:21;100329.79;;;3.72;45.21
51926;BME280;37952;51.938;15.480;2023-04-06T04:07:24;100331.77;;;3.69;45.26
51926;BME280;37952;51.938;15.480;2023-04-06T04:10:26;100334.44;;;3.67;45.22
51926;BME280;37952;51.938;15.480;2023-04-06T04:13:30;100335.36;;;3.65;45.17
51926;BME280;37952;51.938;15.480;2023-04-06T04:20:33;100331.11;;;3.61;45.22
51926;BME280;37952;51.938;15.480;2023-04-06T04:23:36;100333.75;;;3.59;45.27
51926;BME280;37952;51.938;15.480;2023-04-06T04:26:39;100326.39;;;3.53;45.30
51926;BME280;37952;51.938;15.480;2023-04-06T04:29:42;100332.02;;;3.59;45.37
51926;BME280;37952;51.938;15.480;2023-04-06T04:32:46;100331.86;;;3.58;45.41
51926;BME280;37952;51.938;15.480;2023-04-06T04:35:49;100331.61;;;3.53;45.38
51926;BME280;37952;51.938;15.480;2023-04-06T04:38:52;100332.69;;;3.52;45.51
51926;BME280;37952;51.938;15.480;2023-04-06T04:41:55;100339.44;;;3.55;45.53
51926;BME280;37952;51.938;15.480;2023-04-06T04:44:57;100338.41;;;3.53;45.54
51926;BME280;37952;51.938;15.480;2023-04-06T04:48:00;100341.77;;;3.51;45.64
51926;BME280;37952;51.938;15.480;2023-04-06T04:51:04;100343.39;;;3.49;45.69
51926;BME280;37952;51.938;15.480;2023-04-06T04:54:08;100346.67;;;3.50;45.63
51926;BME280;37952;51.938;15.480;2023-04-06T04:57:11;100345.97;;;3.50;45.70
51926;BME280;37952;51.938;15.480;2023-04-06T05:00:14;100348.30;;;3.47;45.65
51926;BME280;37952;51.938;15.480;2023-04-06T05:03:21;100348.36;;;3.45;45.65
51926;BME280;37952;51.938;15.480;2023-04-06T05:06:25;100349.66;;;3.40;45.74
51926;BME280;37952;51.938;15.480;2023-04-06T05:09:29;100354.16;;;3.42;45.80
51926;BME280;37952;51.938;15.480;2023-04-06T05:12:33;100351.54;;;3.43;45.82
51926;BME280;37952;51.938;15.480;2023-04-06T05:19:42;100356.99;;;3.48;45.90
51926;BME280;37952;51.938;15.480;2023-04-06T05:22:47;100356.38;;;3.53;45.81
51926;BME280;37952;51.938;15.480;2023-04-06T05:25:50;100359.10;;;3.55;45.86
51926;BME280;37952;51.938;15.480;2023-04-06T05:28:53;100357.33;;;3.57;45.76
51926;BME280;37952;51.938;15.480;2023-04-06T05:31:57;100358.50;;;3.59;45.83
51926;BME280;37952;51.938;15.480;2023-04-06T05:57:09;100352.16;;;4.42;45.96
51926;BME280;37952;51.938;15.480;2023-04-06T06:00:25;100338.85;;;4.31;46.33
51926;BME280;37952;51.938;15.480;2023-04-06T06:03:33;100349.68;;;4.38;46.33
51926;BME280;37952;51.938;15.480;2023-04-06T06:10:00;100342.02;;;4.31;46.31
51926;BME280;37952;51.938;15.480;2023-04-06T06:13:18;100339.73;;;4.31;46.32
51926;BME280;37952;51.938;15.480;2023-04-06T06:16:23;100351.83;;;4.36;46.31
51926;BME280;37952;51.938;15.480;2023-04-06T06:19:26;100346.85;;;4.33;46.31
51926;BME280;37952;51.938;15.480;2023-04-06T06:22:29;100353.06;;;4.36;46.31
51926;BME280;37952;51.938;15.480;2023-04-06T06:25:32;100344.77;;;4.32;46.31
51926;BME280;37952;51.938;15.480;2023-04-06T06:28:50;100360.25;;;4.41;46.31
51926;BME280;37952;51.938;15.480;2023-04-06T06:32:09;100351.29;;;4.37;46.37
51926;BME280;37952;51.938;15.480;2023-04-06T06:35:46;100359.30;;;4.44;46.39
51926;BME280;37952;51.938;15.480;2023-04-06T06:43:05;100353.23;;;4.42;46.38
51926;BME280;37952;51.938;15.480;2023-04-06T06:46:13;100365.13;;;4.48;46.20
51926;BME280;37952;51.938;15.480;2023-04-06T06:53:21;100366.54;;;4.48;46.10
51926;BME280;37952;51.938;15.480;2023-04-06T06:56:52;100368.66;;;4.47;46.06
51926;BME280;37952;51.938;15.480;2023-04-06T07:00:11;100373.02;;;4.47;46.12
51926;BME280;37952;51.938;15.480;2023-04-06T07:03:31;100363.70;;;4.43;46.06
51926;BME280;37952;51.938;15.480;2023-04-06T07:07:03;100371.02;;;4.50;45.88
51926;BME280;37952;51.938;15.480;2023-04-06T07:10:24;100367.02;;;4.50;45.78
51926;BME280;37952;51.938;15.480;2023-04-06T07:13:45;100365.85;;;4.47;45.78
51926;BME280;37952;51.938;15.480;2023-04-06T07:17:10;100363.29;;;4.52;45.75
51926;BME280;37952;51.938;15.480;2023-04-06T07:21:02;100361.23;;;4.50;45.75
51926;BME280;37952;51.938;15.480;2023-04-06T07:24:35;100371.05;;;4.56;45.77
51926;BME280;37952;51.938;15.480;2023-04-06T07:28:05;100375.36;;;4.65;45.79
51926;BME280;37952;51.938;15.480;2023-04-06T07:35:30;100361.16;;;4.67;46.02
51926;BME280;37952;51.938;15.480;2023-04-06T07:39:20;100357.25;;;4.69;45.88
51926;BME280;37952;51.938;15.480;2023-04-06T07:51:09;100362.16;;;4.82;45.36
51926;BME280;37952;51.938;15.480;2023-04-06T07:54:37;100370.70;;;4.89;45.14
51926;BME280;37952;51.938;15.480;2023-04-06T08:02:15;100373.08;;;4.92;45.07
51926;BME280;37952;51.938;15.480;2023-04-06T08:05:44;100373.73;;;4.93;44.94
51926;BME280;37952;51.938;15.480;2023-04-06T08:08:54;100367.48;;;4.92;44.86
51926;BME280;37952;51.938;15.480;2023-04-06T08:18:11;100379.80;;;5.08;45.01
51926;BME280;37952;51.938;15.480;2023-04-06T08:21:21;100377.31;;;5.09;44.95
51926;BME280;37952;51.938;15.480;2023-04-06T08:24:25;100365.41;;;5.04;44.86
51926;BME280;37952;51.938;15.480;2023-04-06T08:27:28;100372.90;;;5.11;44.66
51926;BME280;37952;51.938;15.480;2023-04-06T08:30:34;100371.19;;;5.10;44.75
51926;BME280;37952;51.938;15.480;2023-04-06T08:33:38;100347.27;;;5.02;44.77
51926;BME280;37952;51.938;15.480;2023-04-06T08:36:45;100366.27;;;5.17;44.69
51926;BME280;37952;51.938;15.480;2023-04-06T08:39:53;100350.73;;;5.10;44.67
51926;BME280;37952;51.938;15.480;2023-04-06T08:43:06;100366.76;;;5.25;44.63
51926;BME280;37952;51.938;15.480;2023-04-06T08:46:16;100349.27;;;5.13;44.62
51926;BME280;37952;51.938;15.480;2023-04-06T08:49:21;100341.40;;;5.13;44.72
51926;BME280;37952;51.938;15.480;2023-04-06T08:52:34;100367.23;;;5.32;44.76
51926;BME280;37952;51.938;15.480;2023-04-06T08:55:38;100359.52;;;5.33;44.64
51926;BME280;37952;51.938;15.480;2023-04-06T08:58:43;100353.62;;;5.32;44.54
51926;BME280;37952;51.938;15.480;2023-04-06T09:01:46;100367.80;;;5.43;44.61
51926;BME280;37952;51.938;15.480;2023-04-06T09:04:52;100366.04;;;5.43;44.21
51926;BME280;37952;51.938;15.480;2023-04-06T09:07:57;100367.40;;;5.45;44.38
51926;BME280;37952;51.938;15.480;2023-04-06T09:11:04;100366.73;;;5.49;44.36
51926;BME280;37952;51.938;15.480;2023-04-06T09:14:07;100365.23;;;5.53;44.25
51926;BME280;37952;51.938;15.480;2023-04-06T09:17:20;100361.35;;;5.53;44.21
51926;BME280;37952;51.938;15.480;2023-04-06T09:20:25;100340.73;;;5.43;43.95
51926;BME280;37952;51.938;15.480;2023-04-06T09:23:29;100354.98;;;5.57;44.17
51926;BME280;37952;51.938;15.480;2023-04-06T09:26:43;100354.35;;;5.60;44.00
51926;BME280;37952;51.938;15.480;2023-04-06T09:30:11;100351.77;;;5.65;44.09
51926;BME280;37952;51.938;15.480;2023-04-06T09:33:23;100345.98;;;5.65;44.10
51926;BME280;37952;51.938;15.480;2023-04-06T09:36:31;100350.86;;;5.72;44.01
51926;BME280;37952;51.938;15.480;2023-04-06T09:39:34;100348.23;;;5.72;43.20
51926;BME280;37952;51.938;15.480;2023-04-06T09:42:37;100347.45;;;5.69;43.29
51926;BME280;37952;51.938;15.480;2023-04-06T09:45:43;100346.30;;;5.72;43.58
51926;BME280;37952;51.938;15.480;2023-04-06T09:48:46;100342.79;;;5.78;43.67
51926;BME280;37952;51.938;15.480;2023-04-06T09:55:48;100346.77;;;5.91;43.65
51926;BME280;37952;51.938;15.480;2023-04-06T09:59:02;100343.83;;;5.95;43.60
51926;BME280;37952;51.938;15.480;2023-04-06T10:02:15;100314.88;;;5.86;43.56
51926;BME280;37952;51.938;15.480;2023-04-06T10:08:45;100337.44;;;6.10;43.40
51926;BME280;37952;51.938;15.480;2023-04-06T10:11:50;100338.96;;;6.17;43.27
51926;BME280;37952;51.938;15.480;2023-04-06T10:14:56;100338.27;;;6.21;43.03
51926;BME280;37952;51.938;15.480;2023-04-06T10:18:03;100328.89;;;6.20;42.00
51926;BME280;37952;51.938;15.480;2023-04-06T10:21:11;100336.75;;;6.25;42.71
51926;BME280;37952;51.938;15.480;2023-04-06T10:24:17;100336.78;;;6.30;42.77
51926;BME280;37952;51.938;15.480;2023-04-06T10:27:28;100313.13;;;6.26;42.66
51926;BME280;37952;51.938;15.480;2023-04-06T10:30:42;100325.99;;;6.44;42.57
51926;BME280;37952;51.938;15.480;2023-04-06T10:33:54;100324.95;;;6.49;42.34
51926;BME280;37952;51.938;15.480;2023-04-06T10:36:58;100325.69;;;6.53;42.02
51926;BME280;37952;51.938;15.480;2023-04-06T10:40:24;100327.10;;;6.58;42.23
51926;BME280;37952;51.938;15.480;2023-04-06T10:43:33;100318.71;;;6.57;41.46
51926;BME280;37952;51.938;15.480;2023-04-06T10:46:52;100323.23;;;6.63;41.12
51926;BME280;37952;51.938;15.480;2023-04-06T10:49:56;100320.67;;;6.66;41.26
51926;BME280;37952;51.938;15.480;2023-04-06T10:53:03;100316.26;;;6.62;39.76
51926;BME280;37952;51.938;15.480;2023-04-06T10:56:11;100295.33;;;6.49;40.83
51926;BME280;37952;51.938;15.480;2023-04-06T10:59:20;100313.44;;;6.68;41.40
51926;BME280;37952;51.938;15.480;2023-04-06T11:02:25;100313.40;;;6.79;41.31
51926;BME280;37952;51.938;15.480;2023-04-06T11:05:29;100307.13;;;6.87;41.14
51926;BME280;37952;51.938;15.480;2023-04-06T11:08:34;100312.73;;;6.97;41.16
51926;BME280;37952;51.938;15.480;2023-04-06T11:15:21;100309.57;;;7.16;40.89
51926;BME280;37952;51.938;15.480;2023-04-06T11:18:24;100289.61;;;7.16;40.85
51926;BME280;37952;51.938;15.480;2023-04-06T11:21:40;100306.75;;;7.36;40.95
51926;BME280;37952;51.938;15.480;2023-04-06T11:24:50;100301.23;;;7.47;40.78
51926;BME280;37952;51.938;15.480;2023-04-06T11:27:59;100297.34;;;7.57;40.65
51926;BME280;37952;51.938;15.480;2023-04-06T11:31:05;100292.94;;;7.62;40.76
51926;BME280;37952;51.938;15.480;2023-04-06T11:34:13;100289.74;;;7.72;40.84
51926;BME280;37952;51.938;15.480;2023-04-06T11:37:21;100293.60;;;7.85;40.55
51926;BME280;37952;51.938;15.480;2023-04-06T11:44:37;100286.15;;;8.13;40.62
51926;BME280;37952;51.938;15.480;2023-04-06T11:47:42;100261.94;;;8.20;40.53
51926;BME280;37952;51.938;15.480;2023-04-06T11:50:48;100274.73;;;8.46;40.39
51926;BME280;37952;51.938;15.480;2023-04-06T11:53:57;100254.40;;;8.49;40.16
51926;BME280;37952;51.938;15.480;2023-04-06T11:57:04;100272.01;;;8.77;40.52
51926;BME280;37952;51.938;15.480;2023-04-06T12:00:11;100262.94;;;8.91;40.73
51926;BME280;37952;51.938;15.480;2023-04-06T12:03:15;100260.42;;;9.08;40.48
51926;BME280;37952;51.938;15.480;2023-04-06T12:06:19;100243.70;;;9.12;39.89
51926;BME280;37952;51.938;15.480;2023-04-06T12:09:22;100257.32;;;9.29;39.88
51926;BME280;37952;51.938;15.480;2023-04-06T12:12:26;100259.92;;;9.34;40.02
51926;BME280;37952;51.938;15.480;2023-04-06T12:15:29;100256.84;;;9.43;40.09
51926;BME280;37952;51.938;15.480;2023-04-06T12:18:33;100254.26;;;9.56;39.59
51926;BME280;37952;51.938;15.480;2023-04-06T12:21:36;100239.52;;;9.59;39.50
51926;BME280;37952;51.938;15.480;2023-04-06T12:24:49;100252.73;;;9.84;40.10
51926;BME280;37952;51.938;15.480;2023-04-06T12:27:52;100248.34;;;10.02;40.02
51926;BME280;37952;51.938;15.480;2023-04-06T12:30:59;100246.47;;;10.22;39.80
51926;BME280;37952;51.938;15.480;2023-04-06T12:34:06;100238.63;;;10.37;39.60
51926;BME280;37952;51.938;15.480;2023-04-06T12:37:13;100238.95;;;10.52;38.84
51926;BME280;37952;51.938;15.480;2023-04-06T12:40:18;100242.73;;;10.47;39.01
51926;BME280;37952;51.938;15.480;2023-04-06T12:43:21;100247.79;;;10.49;39.02
51926;BME280;37952;51.938;15.480;2023-04-06T12:46:26;100240.03;;;10.59;39.06
51926;BME280;37952;51.938;15.480;2023-04-06T12:49:30;100230.98;;;10.63;38.91
51926;BME280;37952;51.938;15.480;2023-04-06T12:52:35;100235.77;;;10.73;38.05
51926;BME280;37952;51.938;15.480;2023-04-06T12:55:39;100237.70;;;10.86;37.76
51926;BME280;37952;51.938;15.480;2023-04-06T12:58:45;100227.44;;;10.93;37.23
51926;BME280;37952;51.938;15.480;2023-04-06T13:02:03;100214.64;;;10.92;36.32
51926;BME280;37952;51.938;15.480;2023-04-06T13:05:06;100200.07;;;10.94;37.74
51926;BME280;37952;51.938;15.480;2023-04-06T13:08:12;100193.76;;;11.19;37.99
51926;BME280;37952;51.938;15.480;2023-04-06T13:11:18;100204.02;;;11.56;38.05
51926;BME280;37952;51.938;15.480;2023-04-06T13:14:23;100213.00;;;11.81;37.88
51926;BME280;37952;51.938;15.480;2023-04-06T13:17:27;100212.05;;;11.76;37.86
51926;BME280;37952;51.938;15.480;2023-04-06T13:20:39;100214.77;;;11.63;37.62
51926;BME280;37952;51.938;15.480;2023-04-06T13:23:50;100194.51;;;11.34;37.80
51926;BME280;37952;51.938;15.480;2023-04-06T13:26:53;100200.85;;;11.21;37.79
51926;BME280;37952;51.938;15.480;2023-04-06T13:29:59;100197.82;;;11.06;37.94
51926;BME280;37952;51.938;15.480;2023-04-06T13:33:04;100201.15;;;11.09;37.89
51926;BME280;37952;51.938;15.480;2023-04-06T13:36:31;100204.27;;;11.26;37.56
51926;BME280;37952;51.938;15.480;2023-04-06T13:39:35;100199.23;;;11.50;37.43
51926;BME280;37952;51.938;15.480;2023-04-06T13:42:41;100180.01;;;11.62;37.06
51926;BME280;37952;51.938;15.480;2023-04-06T13:49:53;100190.02;;;11.84;36.17
51926;BME280;37952;51.938;15.480;2023-04-06T13:52:57;100185.48;;;11.74;36.57
51926;BME280;37952;51.938;15.480;2023-04-06T13:56:02;100181.88;;;11.54;36.46
51926;BME280;37952;51.938;15.480;2023-04-06T13:59:05;100185.77;;;11.35;36.48
51926;BME280;37952;51.938;15.480;2023-04-06T14:02:09;100183.71;;;11.15;36.34
51926;BME280;37952;51.938;15.480;2023-04-06T14:05:13;100184.68;;;11.04;36.47
51926;BME280;37952;51.938;15.480;2023-04-06T14:08:17;100186.77;;;10.98;36.56
51926;BME280;37952;51.938;15.480;2023-04-06T14:11:23;100179.55;;;11.08;36.53
51926;BME280;37952;51.938;15.480;2023-04-06T14:14:37;100169.61;;;11.40;36.45
51926;BME280;37952;51.938;15.480;2023-04-06T14:18:09;100175.15;;;11.85;36.66
51926;BME280;37952;51.938;15.480;2023-04-06T14:21:14;100166.52;;;12.09;36.51
51926;BME280;37952;51.938;15.480;2023-04-06T14:24:26;100164.51;;;12.28;36.19
51926;BME280;37952;51.938;15.480;2023-04-06T14:27:36;100169.33;;;12.50;35.94
51926;BME280;37952;51.938;15.480;2023-04-06T14:31:01;100158.02;;;12.56;36.02
51926;BME280;37952;51.938;15.480;2023-04-06T14:34:27;100167.59;;;12.52;36.12
51926;BME280;37952;51.938;15.480;2023-04-06T14:37:42;100164.15;;;12.28;35.80
51926;BME280;37952;51.938;15.480;2023-04-06T14:41:22;100152.27;;;11.99;35.79
51926;BME280;37952;51.938;15.480;2023-04-06T14:45:13;100160.90;;;11.99;36.27
51926;BME280;37952;51.938;15.480;2023-04-06T14:48:37;100162.98;;;12.18;36.50
51926;BME280;37952;51.938;15.480;2023-04-06T14:51:48;100151.40;;;12.28;35.43
51926;BME280;37952;51.938;15.480;2023-04-06T14:55:20;100153.85;;;12.37;36.02
51926;BME280;37952;51.938;15.480;2023-04-06T14:58:35;100147.05;;;12.53;36.12
51926;BME280;37952;51.938;15.480;2023-04-06T15:01:48;100150.33;;;12.74;35.86
51926;BME280;37952;51.938;15.480;2023-04-06T15:04:57;100149.46;;;12.82;35.55
51926;BME280;37952;51.938;15.480;2023-04-06T15:08:10;100150.52;;;12.94;35.46
51926;BME280;37952;51.938;15.480;2023-04-06T15:11:22;100133.87;;;12.91;35.33
51926;BME280;37952;51.938;15.480;2023-04-06T15:14:25;100149.48;;;12.99;35.15
51926;BME280;37952;51.938;15.480;2023-04-06T15:17:29;100146.10;;;12.97;35.16
51926;BME280;37952;51.938;15.480;2023-04-06T15:20:39;100137.77;;;12.91;35.03
51926;BME280;37952;51.938;15.480;2023-04-06T15:23:43;100148.17;;;13.00;34.97
51926;BME280;37952;51.938;15.480;2023-04-06T15:26:46;100143.01;;;13.00;33.44
51926;BME280;37952;51.938;15.480;2023-04-06T15:29:52;100140.38;;;12.72;32.82
51926;BME280;37952;51.938;15.480;2023-04-06T15:32:58;100149.77;;;12.55;32.92
51926;BME280;37952;51.938;15.480;2023-04-06T15:36:24;100147.40;;;12.33;34.15
51926;BME280;37952;51.938;15.480;2023-04-06T15:39:31;100132.27;;;11.99;33.55
51926;BME280;37952;51.938;15.480;2023-04-06T15:42:36;100144.83;;;12.02;34.76
51926;BME280;37952;51.938;15.480;2023-04-06T15:45:40;100144.83;;;12.23;34.77
51926;BME280;37952;51.938;15.480;2023-04-06T15:48:46;100121.27;;;12.29;34.63
51926;BME280;37952;51.938;15.480;2023-04-06T15:51:55;100139.14;;;12.55;34.91
51926;BME280;37952;51.938;15.480;2023-04-06T15:54:58;100136.98;;;12.64;34.61
51926;BME280;37952;51.938;15.480;2023-04-06T15:58:09;100126.91;;;12.64;34.54
51926;BME280;37952;51.938;15.480;2023-04-06T16:01:15;100128.71;;;12.66;34.61
51926;BME280;37952;51.938;15.480;2023-04-06T16:04:24;100135.73;;;12.70;34.63
51926;BME280;37952;51.938;15.480;2023-04-06T16:07:31;100138.58;;;12.78;34.64
51926;BME280;37952;51.938;15.480;2023-04-06T16:10:35;100139.63;;;12.84;34.55
51926;BME280;37952;51.938;15.480;2023-04-06T16:13:38;100135.65;;;12.88;34.47
51926;BME280;37952;51.938;15.480;2023-04-06T16:16:42;100135.17;;;12.87;34.34
51926;BME280;37952;51.938;15.480;2023-04-06T16:19:46;100139.90;;;12.88;34.20
51926;BME280;37952;51.938;15.480;2023-04-06T16:22:48;100139.42;;;12.90;34.39
51926;BME280;37952;51.938;15.480;2023-04-06T16:25:51;100138.30;;;12.88;34.10
51926;BME280;37952;51.938;15.480;2023-04-06T16:28:57;100136.33;;;12.77;33.58
51926;BME280;37952;51.938;15.480;2023-04-06T16:31:59;100133.81;;;12.64;34.21
51926;BME280;37952;51.938;15.480;2023-04-06T16:35:03;100131.25;;;12.57;34.32
51926;BME280;37952;51.938;15.480;2023-04-06T16:38:06;100128.88;;;12.55;34.42
51926;BME280;37952;51.938;15.480;2023-04-06T16:41:09;100130.23;;;12.56;34.20
51926;BME280;37952;51.938;15.480;2023-04-06T16:44:11;100126.64;;;12.54;34.22
51926;BME280;37952;51.938;15.480;2023-04-06T16:47:15;100131.76;;;12.49;34.16
51926;BME280;37952;51.938;15.480;2023-04-06T16:50:20;100134.35;;;12.35;34.03
51926;BME280;37952;51.938;15.480;2023-04-06T16:53:23;100133.92;;;12.22;34.05
51926;BME280;37952;51.938;15.480;2023-04-06T16:56:25;100128.27;;;12.10;33.85
51926;BME280;37952;51.938;15.480;2023-04-06T16:59:29;100133.02;;;11.99;34.19
51926;BME280;37952;51.938;15.480;2023-04-06T17:02:48;100130.77;;;11.89;34.16
51926;BME280;37952;51.938;15.480;2023-04-06T17:05:51;100130.73;;;11.78;33.99
51926;BME280;37952;51.938;15.480;2023-04-06T17:08:53;100128.40;;;11.66;34.17
51926;BME280;37952;51.938;15.480;2023-04-06T17:15:21;100131.39;;;11.42;33.98
51926;BME280;37952;51.938;15.480;2023-04-06T17:18:26;100136.73;;;11.35;33.97
51926;BME280;37952;51.938;15.480;2023-04-06T17:21:41;100134.28;;;11.28;34.11
51926;BME280;37952;51.938;15.480;2023-04-06T17:24:43;100135.77;;;11.24;34.00
51926;BME280;37952;51.938;15.480;2023-04-06T17:27:47;100140.13;;;11.19;33.98
51926;BME280;37952;51.938;15.480;2023-04-06T17:30:49;100136.38;;;11.13;34.09
51926;BME280;37952;51.938;15.480;2023-04-06T17:33:52;100137.16;;;11.09;34.14
51926;BME280;37952;51.938;15.480;2023-04-06T17:36:55;100143.25;;;11.04;34.20
51926;BME280;37952;51.938;15.480;2023-04-06T17:39:58;100142.40;;;10.97;34.25
51926;BME280;37952;51.938;15.480;2023-04-06T17:43:01;100144.52;;;10.87;34.24
51926;BME280;37952;51.938;15.480;2023-04-06T17:46:04;100142.55;;;10.78;34.38
51926;BME280;37952;51.938;15.480;2023-04-06T17:49:07;100146.00;;;10.70;34.35
51926;BME280;37952;51.938;15.480;2023-04-06T17:52:11;100143.94;;;10.62;34.46
51926;BME280;37952;51.938;15.480;2023-04-06T17:55:14;100147.70;;;10.55;34.43
51926;BME280;37952;51.938;15.480;2023-04-06T17:58:22;100148.42;;;10.47;34.54
51926;BME280;37952;51.938;15.480;2023-04-06T18:01:25;100148.70;;;10.35;34.83
51926;BME280;37952;51.938;15.480;2023-04-06T18:04:28;100150.77;;;10.29;34.72